Date,TemperatureHighF,TemperatureAvgF,TemperatureLowF,DewpointHighF,DewpointAvgF,DewpointLowF,HumidityHigh,HumidityAvg,HumidityLow,PressureMaxIn,PressureMinIn,WindSpeedMaxMPH,WindSpeedAvgMPH,GustSpeedMaxMPH,PrecipitationSumIn
2014-1-1,35.9,29.7,23.1,32.4,26.7,20.9,94,88,81,30.52,30.39,12,4,12,0.00
2014-1-2,46.6,35.0,26.5,34.2,29.6,24.4,93,81,63,30.40,29.82,30,7,30,0.01
2014-1-3,47.0,33.6,26.0,34.6,27.7,20.8,95,79,55,30.20,29.78,50,14,50,0.13
2014-1-4,36.0,25.7,20.7,21.0,16.5,9.9,82,68,50,30.49,30.20,22,8,22,0.01
2014-1-5,40.2,23.8,15.0,24.1,15.9,8.2,83,72,48,30.67,30.48,9,3,9,0.01
2014-1-6,31.2,24.5,16.5,21.9,16.6,11.6,83,72,61,30.62,30.25,14,6,14,0.00
2014-1-7,33.5,29.7,25.5,28.1,22.9,16.5,90,76,60,30.25,30.09,9,2,9,0.00
2014-1-8,37.2,32.8,28.8,34.1,30.2,27.3,95,90,80,30.14,29.80,20,5,20,0.05
2014-1-9,38.9,33.2,30.2,32.5,29.0,24.5,95,85,74,30.01,29.75,44,13,44,0.11
2014-1-10,39.9,37.6,33.4,33.1,30.7,28.9,94,76,66,30.04,29.76,39,17,39,0.07
2014-1-11,42.9,37.7,33.2,37.2,31.7,26.2,94,80,56,29.91,29.55,38,20,38,0.35
2014-1-12,41.3,35.8,32.1,35.0,29.2,22.0,95,77,62,30.19,29.65,47,24,47,0.01
2014-1-13,45.6,39.9,34.4,36.3,32.5,29.8,84,75,66,30.56,30.17,37,15,37,0.00
2014-1-14,47.8,37.2,32.5,36.3,31.7,28.0,89,81,61,30.70,30.52,12,4,12,0.00
2014-1-15,45.0,35.4,28.9,36.6,28.7,23.1,90,77,55,30.59,30.48,12,3,12,0.00
2014-1-16,41.2,33.0,26.9,36.2,28.1,22.3,92,82,70,30.63,30.44,10,3,10,0.00
2014-1-17,47.9,34.0,26.2,35.8,28.2,22.1,92,79,60,30.45,30.34,7,3,7,0.00
2014-1-18,44.9,33.6,25.7,35.5,27.9,22.1,89,80,67,30.42,30.23,12,4,12,0.00
2014-1-19,42.6,34.0,27.0,34.3,27.5,21.9,91,77,61,30.38,30.18,12,3,12,0.00
2014-1-20,40.5,31.3,21.1,35.1,28.0,18.9,93,88,76,30.53,30.37,13,4,13,0.00
2014-1-21,42.5,30.8,23.8,34.6,27.2,22.0,100,87,71,30.50,30.34,7,3,7,0.00
2014-1-22,25.5,23.5,22.2,23.9,21.8,20.5,94,93,92,30.56,30.32,7,2,7,0.00
2014-1-23,27.3,23.7,20.5,25.8,22.1,18.5,94,93,92,30.70,30.56,0,0,0,0.00
2014-1-24,43.6,26.7,18.7,42.5,25.1,16.8,100,94,86,30.74,30.56,7,1,7,0.03
2014-1-25,29.6,23.8,19.0,28.3,22.3,17.0,95,94,92,30.59,30.40,6,1,6,0.01
2014-1-26,28.7,22.8,19.6,27.4,21.2,17.7,95,93,92,30.41,30.30,0,0,0,0.01
2014-1-27,26.2,22.8,21.1,25.0,21.2,19.4,95,94,93,30.50,30.33,0,0,0,0.00
2014-1-28,27.8,24.5,18.8,26.6,23.1,16.9,95,94,92,30.48,30.16,0,0,0,0.00
2014-1-29,37.4,32.6,27.4,36.1,31.5,26.1,97,96,91,30.16,29.65,27,5,27,0.65
2014-1-30,34.7,31.3,29.3,33.2,29.2,25.0,97,92,81,29.92,29.74,21,6,21,0.24
2014-1-31,32.1,28.3,24.9,30.4,26.6,23.4,95,94,83,30.11,29.92,13,4,13,0.00
2014-2-1,28.1,23.3,15.0,23.5,20.1,12.5,94,88,69,30.28,30.11,14,4,14,0.00
2014-2-2,30.6,25.8,19.3,26.4,22.6,15.6,94,88,77,30.13,29.93,12,3,12,0.01
2014-2-3,36.4,21.2,15.3,31.3,18.8,13.1,100,90,79,30.22,29.94,15,3,15,0.06
2014-2-4,15.3,8.6,0.6,13.1,4.5,-3.0,91,83,78,30.57,30.17,14,8,14,0.00
2014-2-5,7.5,2.5,-5.7,0.5,-2.9,-10.3,86,78,68,30.69,30.56,15,8,15,0.00
2014-2-6,12.0,2.2,-9.6,9.4,-3.1,-14.6,89,78,71,30.58,29.92,20,10,20,0.00
2014-2-7,18.1,11.6,6.9,15.5,8.7,3.8,91,88,82,30.10,29.88,18,5,18,0.01
2014-2-8,21.6,16.5,12.0,19.2,14.1,9.4,100,90,81,30.21,29.90,14,5,14,0.00
2014-2-9,23.3,18.1,13.2,21.8,16.1,10.8,94,92,90,30.27,29.90,13,4,13,0.00
2014-2-10,40.2,31.0,21.3,35.2,27.9,19.4,96,89,77,30.30,30.09,25,7,25,0.11
2014-2-11,49.2,36.0,31.3,39.2,31.9,29.1,95,85,65,30.17,29.90,35,12,35,0.13
2014-2-12,46.1,41.4,34.1,37.3,34.6,30.3,86,77,66,29.90,29.69,45,17,45,0.01
2014-2-13,44.7,39.2,32.4,37.2,29.3,23.0,90,68,49,30.12,29.73,51,19,51,0.09
2014-2-14,42.4,36.9,31.6,36.6,31.1,23.3,95,80,61,30.04,29.83,33,12,33,0.05
2014-2-15,44.9,35.1,30.5,36.2,31.9,27.8,93,88,69,30.02,29.50,24,8,24,0.02
2014-2-16,39.2,34.7,31.8,35.5,26.2,22.8,93,71,60,30.11,29.65,34,16,34,0.06
2014-2-17,42.9,37.9,33.5,33.5,27.6,23.3,91,67,51,29.97,29.72,43,21,43,0.01
2014-2-18,41.4,35.4,30.4,34.2,30.2,22.7,100,82,62,30.08,29.67,40,12,40,0.23
2014-2-19,33.8,29.8,26.7,26.6,23.1,20.0,90,76,67,30.20,29.78,40,18,40,0.00
2014-2-20,35.9,32.1,23.4,30.3,26.5,18.1,92,80,72,30.23,30.03,34,16,34,0.00
2014-2-21,37.1,31.4,26.2,29.0,25.1,20.9,84,78,64,30.17,30.06,24,10,24,0.00
2014-2-22,27.0,24.7,23.2,22.1,20.9,17.9,93,85,72,30.21,30.13,10,5,10,0.01
2014-2-23,32.0,28.3,23.5,31.0,26.8,21.5,96,94,92,30.13,30.00,7,3,7,0.07
2014-2-24,33.5,30.5,25.6,32.0,29.4,24.1,96,96,94,30.24,30.06,15,2,15,0.42
2014-2-25,31.6,27.9,23.6,29.3,26.2,22.1,95,93,91,30.37,30.23,13,4,13,0.13
2014-2-26,38.5,31.0,27.4,35.8,29.6,26.2,100,94,87,30.25,29.85,17,8,17,0.01
2014-2-27,35.1,30.4,27.9,34.0,29.3,26.7,96,96,92,29.85,29.71,13,3,13,0.06
2014-2-28,36.1,31.3,23.1,35.2,30.4,21.6,97,97,94,29.81,29.60,22,4,22,0.17
2014-3-1,23.0,16.8,11.5,21.3,14.0,8.4,94,89,84,30.02,29.64,28,13,28,0.00
2014-3-2,43.7,29.9,20.0,39.1,27.7,18.3,97,92,71,30.00,29.81,33,6,33,0.07
2014-3-3,43.6,40.3,35.9,38.7,34.5,30.9,94,80,63,29.94,29.76,34,13,34,0.12
2014-3-4,44.6,40.3,35.0,38.0,33.8,30.7,88,77,65,30.02,29.92,31,10,31,0.01
2014-3-5,47.5,42.0,37.3,41.6,37.3,33.1,92,83,76,29.99,29.56,27,10,27,0.15
2014-3-6,51.0,42.8,38.4,41.5,36.9,32.2,96,80,52,30.00,29.59,34,10,34,0.16
2014-3-7,48.2,39.9,33.5,39.9,34.4,29.8,89,81,65,30.33,29.99,21,7,21,0.00
2014-3-8,51.1,42.4,31.0,38.4,33.2,28.0,92,71,49,30.29,29.93,22,8,22,0.07
2014-3-9,54.1,47.2,42.4,46.4,42.0,37.1,92,82,68,29.98,29.89,26,9,26,0.45
2014-3-10,44.5,39.0,36.0,39.1,35.5,31.3,95,87,81,30.24,29.86,33,12,33,0.22
2014-3-11,45.4,37.1,30.7,37.2,30.9,27.3,87,78,61,30.56,30.23,23,5,23,0.01
2014-3-12,48.8,38.1,29.6,38.1,31.5,26.0,92,78,61,30.53,30.14,14,6,14,0.00
2014-3-13,54.4,43.2,33.4,37.0,31.9,26.9,80,65,47,30.14,30.00,20,5,20,0.00
2014-3-14,48.8,41.0,36.1,39.9,33.5,29.5,90,75,56,30.27,29.94,43,12,43,0.12
2014-3-15,52.6,41.4,32.4,37.0,30.2,26.0,84,65,39,30.43,30.25,18,8,18,0.00
2014-3-16,57.9,46.6,39.3,40.0,31.5,25.5,79,57,37,30.27,29.68,16,6,16,0.00
2014-3-17,42.2,34.4,29.5,36.8,28.4,22.9,95,79,58,30.21,29.63,43,20,43,0.14
2014-3-18,46.1,34.6,27.9,30.2,24.0,20.7,82,66,45,30.32,30.19,22,6,22,0.00
2014-3-19,49.9,38.1,27.3,32.3,27.3,23.0,86,66,42,30.21,29.96,30,8,30,0.00
2014-3-20,39.1,31.9,27.2,31.0,23.3,17.7,92,71,49,30.32,30.00,33,10,33,0.02
2014-3-21,43.9,32.0,23.7,28.1,20.8,16.1,82,65,36,30.34,30.23,12,3,12,0.00
2014-3-22,45.8,33.3,23.4,27.7,22.1,17.4,86,65,39,30.39,30.18,12,3,12,0.00
2014-3-23,48.9,37.0,30.2,30.6,25.1,21.5,80,63,43,30.33,30.17,23,6,23,0.00
2014-3-24,52.4,40.0,29.4,34.6,27.2,22.4,80,62,41,30.35,29.99,17,7,17,0.00
2014-3-25,61.4,43.8,34.8,39.9,30.2,23.2,83,60,35,29.99,29.57,36,6,36,0.00
2014-3-26,49.2,39.1,34.8,36.7,33.8,31.4,93,82,56,29.63,29.54,21,5,21,0.02
2014-3-27,42.3,36.6,32.9,37.8,33.5,31.4,95,89,72,29.92,29.56,29,7,29,0.33
2014-3-28,46.1,40.3,34.6,40.1,34.8,30.1,95,81,64,30.00,29.83,27,10,27,0.26
2014-3-29,51.7,42.0,34.7,40.1,35.9,30.3,95,80,48,29.86,29.77,36,8,36,0.29
2014-3-30,47.2,36.3,32.3,39.9,32.7,29.1,95,87,63,30.02,29.83,20,4,20,0.02
2014-3-31,46.2,36.0,26.5,38.2,31.8,24.4,93,85,62,30.06,29.77,18,8,18,0.08
2014-4-1,55.8,40.9,31.0,43.6,34.4,28.5,92,79,49,29.78,29.67,13,5,13,0.00
2014-4-2,53.2,40.9,33.8,35.3,30.7,26.3,86,68,41,30.00,29.72,20,7,20,0.00
2014-4-3,56.2,42.7,31.3,35.5,29.0,22.9,90,61,31,30.07,29.91,20,5,20,0.00
2014-4-4,42.9,38.5,34.4,38.9,35.0,30.8,93,87,77,29.96,29.86,22,5,22,0.20
2014-4-5,48.1,39.9,31.4,40.3,33.8,28.0,90,79,66,30.07,29.94,26,7,26,0.04
2014-4-6,54.6,45.5,39.0,43.2,38.9,36.1,92,78,59,30.24,30.01,25,10,25,0.08
2014-4-7,63.4,49.8,36.0,46.2,39.8,32.6,88,70,48,30.33,30.11,13,5,13,0.00
2014-4-8,69.3,56.1,45.6,49.0,43.1,37.3,77,63,43,30.11,29.88,17,4,17,0.00
2014-4-9,53.9,46.1,35.3,43.0,36.8,26.8,94,71,43,30.12,29.89,24,6,24,0.31
2014-4-10,58.2,45.2,32.8,37.5,32.0,27.4,83,62,40,30.17,30.01,13,4,13,0.00
2014-4-11,63.3,48.3,34.4,42.3,33.8,28.0,83,59,41,30.03,29.82,22,6,22,0.00
2014-4-12,55.1,43.3,33.7,37.4,31.0,24.8,87,63,48,30.09,29.83,24,7,24,0.00
2014-4-13,51.7,38.7,29.3,29.6,24.1,16.9,81,59,29,30.38,30.08,15,5,15,0.00
2014-4-14,62.9,46.3,29.8,35.9,26.2,17.9,68,47,26,30.35,29.90,21,7,21,0.00
2014-4-15,49.7,44.8,37.9,32.8,28.5,23.6,79,54,39,30.01,29.85,38,17,38,0.00
2014-4-16,49.9,42.3,34.4,36.7,31.3,24.8,79,65,51,30.08,29.99,20,6,20,0.00
2014-4-17,53.7,45.0,40.8,44.8,39.3,33.6,95,81,62,29.99,29.77,15,5,15,0.28
2014-4-18,52.4,42.0,34.4,38.7,30.9,24.6,91,66,38,30.06,29.78,36,10,36,0.07
2014-4-19,65.8,45.4,30.3,41.4,31.4,24.6,80,61,31,30.08,29.80,36,8,36,0.00
2014-4-20,54.5,44.8,35.2,35.2,31.5,26.4,78,60,45,30.30,30.08,20,4,20,0.00
2014-4-21,64.1,50.9,38.1,43.8,35.3,27.3,73,56,37,30.19,29.64,17,7,17,0.00
2014-4-22,51.2,41.7,36.5,40.5,36.2,28.4,95,82,54,29.91,29.61,25,7,25,0.22
2014-4-23,45.8,37.0,33.3,39.1,32.0,27.1,95,82,61,29.98,29.88,26,8,26,0.16
2014-4-24,48.5,41.0,36.4,41.5,37.3,33.6,95,87,71,29.90,29.83,22,8,22,0.20
2014-4-25,40.9,37.3,33.9,38.5,35.3,31.1,96,92,89,29.87,29.73,20,5,20,0.03
2014-4-26,46.7,39.1,32.9,39.0,34.7,30.3,94,85,60,29.80,29.70,20,6,20,0.05
2014-4-27,46.9,38.1,32.5,38.6,31.2,26.9,92,77,52,30.06,29.72,29,10,29,0.05
2014-4-28,53.0,40.4,32.5,35.7,30.6,27.6,86,69,46,30.51,30.04,24,6,24,0.00
2014-4-29,56.6,44.1,32.3,36.6,29.6,22.4,85,60,27,30.66,30.50,20,7,20,0.00
2014-4-30,69.5,51.7,35.8,39.3,32.6,25.0,76,51,24,30.55,30.27,17,6,17,0.00
2014-5-1,78.0,58.3,42.8,54.1,40.3,29.6,70,53,32,30.27,29.95,14,5,14,0.00
2014-5-2,75.3,62.1,46.5,47.9,40.5,32.0,70,46,32,29.98,29.71,21,6,21,0.00
2014-5-3,59.0,52.7,45.4,46.4,40.3,32.8,88,64,40,29.79,29.69,17,6,17,0.05
2014-5-4,56.8,46.0,40.9,46.5,41.3,37.8,100,84,57,29.90,29.73,22,7,22,0.40
2014-5-5,54.7,45.7,38.2,45.9,39.3,34.1,91,79,55,29.93,29.86,26,6,26,0.10
2014-5-6,55.4,44.5,36.6,45.6,38.7,33.1,91,80,63,29.92,29.83,21,4,21,0.01
2014-5-7,59.0,46.5,35.3,44.7,36.2,28.9,95,69,40,29.94,29.85,16,4,16,0.00
2014-5-8,64.3,48.7,35.3,43.5,35.3,24.2,91,62,31,29.89,29.65,25,7,25,0.02
2014-5-9,50.6,44.4,39.8,45.2,38.9,32.9,94,81,58,29.96,29.63,29,9,29,0.52
2014-5-10,53.7,42.8,34.3,42.1,35.7,31.8,93,77,57,30.15,29.93,15,5,15,0.10
2014-5-11,51.7,43.7,38.0,43.4,36.7,31.4,88,77,59,30.37,30.12,20,4,20,0.03
2014-5-12,57.5,45.9,32.5,34.1,30.3,23.4,85,57,31,30.46,30.35,18,7,18,0.00
2014-5-13,69.4,52.4,38.4,40.2,32.9,27.0,73,50,26,30.43,30.31,12,5,12,0.00
2014-5-14,73.1,57.1,40.1,46.8,38.5,29.1,75,52,29,30.35,30.14,10,3,10,0.00
2014-5-15,77.5,61.4,46.9,54.2,45.1,36.3,76,57,29,30.15,29.90,15,5,15,0.00
2014-5-16,72.5,61.6,50.0,54.5,43.1,31.0,74,52,31,29.92,29.82,16,4,16,0.00
2014-5-17,69.2,55.7,44.1,47.9,39.5,31.5,78,55,38,29.89,29.74,16,4,16,0.00
2014-5-18,55.5,48.1,42.7,44.6,40.7,36.3,92,76,58,29.85,29.68,20,6,20,0.07
2014-5-19,58.7,48.7,41.8,51.0,41.5,37.6,92,77,55,30.00,29.84,18,4,18,0.33
2014-5-20,68.4,54.4,38.6,50.2,42.2,34.6,92,66,42,30.03,29.89,12,3,12,0.00
2014-5-21,72.6,61.1,48.3,52.7,43.3,37.5,70,53,38,29.98,29.87,15,3,15,0.00
2014-5-22,77.5,61.1,43.2,52.6,44.3,37.3,80,56,31,30.02,29.88,12,4,12,0.00
2014-5-23,76.7,60.5,50.8,59.0,48.8,38.4,93,67,42,29.96,29.84,29,5,29,0.10
2014-5-24,65.8,56.7,47.3,56.9,49.1,41.1,94,77,54,30.05,29.92,14,3,14,0.03
2014-5-25,72.5,58.1,45.1,52.9,43.9,36.1,86,61,39,30.01,29.84,12,4,12,0.00
2014-5-26,66.5,54.5,45.4,52.5,45.4,35.2,94,73,42,30.07,29.87,17,5,17,0.08
2014-5-27,66.5,54.2,38.5,48.2,41.3,33.5,83,63,44,30.06,29.87,31,4,31,0.02
2014-5-28,54.3,47.7,41.8,46.0,41.2,34.6,92,78,58,30.12,29.91,26,7,26,0.07
2014-5-29,61.9,49.4,38.8,43.9,37.5,33.3,83,65,44,30.19,30.08,15,6,15,0.00
2014-5-30,72.5,56.0,38.5,45.7,38.1,30.4,80,55,27,30.12,29.85,15,5,15,0.00
2014-5-31,72.5,60.4,48.1,47.9,39.3,31.1,65,47,31,29.91,29.80,17,6,17,0.00
2014-6-1,74.2,61.7,50.6,51.4,42.9,35.9,69,51,35,29.95,29.84,13,4,13,0.00
2014-6-2,74.3,61.5,49.1,49.9,44.1,38.3,69,54,33,29.86,29.68,25,8,25,0.00
2014-6-3,71.3,62.8,50.5,54.7,47.0,38.8,77,57,35,29.87,29.65,16,5,16,0.00
2014-6-4,74.5,60.6,46.1,51.9,45.7,39.9,80,60,37,29.97,29.82,12,4,12,0.00
2014-6-5,69.5,57.9,44.2,45.9,38.1,27.6,75,50,27,29.99,29.83,21,6,21,0.00
2014-6-6,72.0,58.0,41.0,41.7,34.0,24.5,65,42,23,30.00,29.90,15,4,15,0.00
2014-6-7,72.5,58.9,42.6,48.0,39.8,30.5,71,51,31,30.01,29.92,13,4,13,0.00
2014-6-8,73.8,62.1,47.1,51.4,44.7,37.6,78,54,38,30.08,29.89,12,4,12,0.00
2014-6-9,75.0,62.0,49.6,54.4,45.6,37.8,77,56,35,29.91,29.79,17,5,17,0.00
2014-6-10,69.8,58.9,48.9,46.0,39.3,35.0,65,49,35,29.91,29.79,17,6,17,0.00
2014-6-11,69.0,59.3,48.7,45.3,40.1,36.5,65,50,32,30.00,29.75,15,6,15,0.00
2014-6-12,73.8,58.4,48.7,53.3,44.9,37.3,88,62,44,29.76,29.57,20,6,20,0.04
2014-6-13,59.0,48.4,44.3,47.9,43.0,38.6,95,83,58,29.95,29.67,23,5,23,0.37
2014-6-14,50.6,46.7,43.4,47.2,44.3,40.1,95,91,81,30.01,29.92,12,5,12,0.06
2014-6-15,59.9,49.5,41.3,50.8,44.6,38.8,96,84,67,29.93,29.69,13,4,13,0.09
2014-6-16,55.5,47.1,42.1,43.4,40.0,33.8,93,77,53,29.87,29.68,14,4,14,0.09
2014-6-17,45.4,42.8,39.8,42.8,39.6,36.5,95,88,81,30.02,29.85,17,4,17,0.09
2014-6-18,58.2,48.9,40.5,51.2,44.4,39.2,100,85,68,30.02,29.94,14,4,14,0.10
2014-6-19,74.0,61.2,44.5,56.7,48.4,41.4,90,65,44,29.97,29.85,20,6,20,0.00
2014-6-20,71.3,60.1,49.5,56.9,47.3,36.0,80,63,48,29.96,29.86,20,5,20,0.00
2014-6-21,70.8,58.1,43.7,49.6,40.5,31.4,78,53,37,30.01,29.88,13,3,13,0.00
2014-6-22,76.1,61.0,43.8,49.5,42.3,36.6,79,52,30,30.00,29.86,13,4,13,0.00
2014-6-23,80.7,63.7,46.3,55.0,44.2,36.8,74,52,25,29.95,29.81,14,4,14,0.00
2014-6-24,72.1,62.1,51.3,57.2,49.6,40.4,85,64,51,30.00,29.79,18,4,18,0.00
2014-6-25,73.5,62.2,47.3,53.4,48.8,43.3,88,64,42,29.92,29.68,12,3,12,0.00
2014-6-26,64.4,58.0,53.2,58.1,53.5,51.1,94,85,69,29.75,29.65,12,3,12,0.16
2014-6-27,61.3,55.0,50.8,56.0,51.4,46.6,95,88,72,29.81,29.71,18,4,18,0.29
2014-6-28,66.3,56.1,47.5,52.1,47.3,43.1,88,73,50,29.94,29.80,20,7,20,0.02
2014-6-29,67.3,57.0,46.5,53.5,45.9,39.8,87,67,48,30.10,29.91,17,5,17,0.00
2014-6-30,70.8,59.6,48.3,51.6,44.5,39.9,75,59,39,30.17,30.04,14,5,14,0.00
2014-7-1,82.7,65.0,46.7,56.2,47.6,39.6,81,56,28,30.05,29.77,17,6,17,0.00
2014-7-2,92.2,73.8,56.1,66.5,54.2,45.0,68,52,30,29.78,29.69,12,4,12,0.00
2014-7-3,84.7,72.5,56.3,60.0,53.0,40.9,81,52,34,29.84,29.68,24,5,24,0.00
2014-7-4,79.0,65.2,50.1,52.8,46.4,38.1,76,52,33,29.90,29.81,12,4,12,0.00
2014-7-5,84.7,69.2,51.5,51.5,44.5,34.6,74,45,22,30.01,29.84,13,4,13,0.00
2014-7-6,87.8,72.2,55.4,55.9,48.6,41.5,73,45,28,30.01,29.87,15,4,15,0.00
2014-7-7,85.0,69.5,57.2,57.4,51.1,46.1,75,53,33,29.99,29.83,17,4,17,0.00
2014-7-8,89.3,73.2,54.0,59.3,52.6,47.8,82,53,27,29.90,29.74,16,4,16,0.00
2014-7-9,87.5,72.9,58.1,60.0,53.6,45.3,75,53,33,29.80,29.64,24,3,24,0.00
2014-7-10,87.3,70.4,51.0,57.0,46.6,38.6,69,45,22,29.81,29.69,15,4,15,0.00
2014-7-11,91.8,71.6,50.3,54.5,44.4,35.0,65,41,15,29.90,29.78,15,3,15,0.00
2014-7-12,91.3,74.0,51.6,57.9,48.2,40.3,71,43,21,30.01,29.87,15,3,15,0.00
2014-7-13,95.0,75.9,55.6,61.7,50.8,41.7,69,46,18,30.01,29.85,12,3,12,0.00
2014-7-14,89.5,76.8,64.8,60.4,53.4,47.9,70,46,30,29.95,29.81,23,6,23,0.00
2014-7-15,88.5,73.4,57.0,59.7,54.2,50.4,80,54,30,29.92,29.81,22,6,22,0.00
2014-7-16,94.0,75.7,57.6,60.6,53.4,48.5,79,50,23,29.89,29.70,15,4,15,0.00
2014-7-17,90.4,75.9,61.6,56.6,46.0,34.8,64,37,22,29.75,29.64,20,5,20,0.00
2014-7-18,79.3,66.9,52.3,51.3,42.9,31.6,62,43,28,29.88,29.70,12,3,12,0.00
2014-7-19,86.5,71.3,53.9,55.3,48.3,38.3,69,46,29,29.89,29.71,22,7,22,0.00
2014-7-20,81.3,68.1,57.0,56.3,53.0,50.3,80,60,41,29.75,29.68,26,8,26,0.00
2014-7-21,78.1,64.8,51.0,52.5,44.6,40.8,77,50,28,29.94,29.70,18,6,18,0.00
2014-7-22,83.6,68.0,58.7,62.0,50.5,40.7,85,55,33,30.00,29.89,31,4,31,0.00
2014-7-23,86.8,66.0,54.0,58.1,52.0,43.6,90,65,23,30.03,29.71,34,10,34,0.01
2014-7-24,70.3,57.6,47.7,47.0,40.8,37.3,77,55,35,30.14,29.93,30,6,30,0.00
2014-7-25,77.5,59.5,40.5,49.8,42.4,35.8,85,56,31,30.08,29.95,15,4,15,0.00
2014-7-26,84.3,65.5,46.2,47.3,41.3,36.8,73,45,21,30.10,29.98,14,5,14,0.00
2014-7-27,90.0,72.6,51.3,48.8,42.0,35.8,57,36,19,30.08,29.91,14,5,14,0.00
2014-7-28,96.3,78.9,60.3,50.8,45.8,42.3,58,33,19,29.98,29.85,18,5,18,0.00
2014-7-29,97.1,79.8,59.0,51.4,44.8,39.1,55,32,14,29.94,29.80,14,3,14,0.00
2014-7-30,94.8,79.8,60.5,49.3,42.9,36.1,48,28,18,29.95,29.83,16,4,16,0.00
2014-7-31,94.2,78.1,59.5,50.2,44.3,38.1,60,32,15,29.94,29.83,22,4,22,0.00
2014-8-1,88.7,75.2,63.8,51.0,46.3,40.7,57,37,22,29.91,29.82,20,5,20,0.00
2014-8-2,90.3,74.1,59.4,55.5,50.6,46.6,79,46,23,29.95,29.79,48,7,48,0.16
2014-8-3,89.0,74.1,58.7,54.8,50.7,42.4,76,47,22,29.95,29.79,14,4,14,0.00
2014-8-4,90.8,75.8,58.1,56.5,49.0,39.1,71,42,21,29.84,29.70,15,3,15,0.00
2014-8-5,91.8,76.6,59.0,52.9,45.2,37.7,52,34,19,29.84,29.73,14,3,14,0.00
2014-8-6,86.8,73.3,55.8,49.4,44.8,41.1,60,37,25,29.91,29.77,17,4,17,0.00
2014-8-7,85.9,69.9,51.2,51.2,43.2,37.0,66,40,23,29.92,29.78,15,4,15,0.00
2014-8-8,82.2,66.2,51.0,48.4,40.3,32.4,53,40,27,29.95,29.82,18,5,18,0.00
2014-8-9,85.2,66.8,46.5,44.0,36.9,31.8,61,36,17,30.04,29.93,25,4,25,0.00
2014-8-10,92.1,71.8,51.9,46.6,40.2,34.3,54,34,20,30.05,29.90,15,5,15,0.00
2014-8-11,94.5,77.5,59.0,51.1,44.6,39.4,49,33,19,29.96,29.75,20,6,22,0.00
2014-8-12,86.3,72.3,56.1,60.8,53.2,45.8,89,54,31,29.84,29.64,41,7,41,0.18
2014-8-13,76.7,64.5,53.7,62.8,56.7,50.6,92,77,55,29.91,29.78,25,4,25,0.07
2014-8-14,75.9,60.9,53.7,60.9,55.7,51.6,95,84,56,29.95,29.84,20,5,20,0.31
2014-8-15,68.2,59.3,51.7,60.1,55.1,49.6,96,86,64,30.00,29.87,14,3,14,0.05
2014-8-16,79.5,63.2,51.9,58.9,53.0,49.1,93,73,42,30.03,29.94,16,4,16,0.00
2014-8-17,83.9,68.3,52.1,56.1,51.3,45.9,87,58,33,30.02,29.89,16,4,16,0.00
2014-8-18,88.0,70.9,52.9,56.6,48.5,42.1,79,49,22,29.92,29.67,17,4,17,0.00
2014-8-19,87.0,73.0,55.6,54.7,47.3,40.4,72,42,26,29.69,29.55,20,4,20,0.00
2014-8-20,75.8,64.5,53.7,57.3,50.8,44.1,90,63,39,29.84,29.57,18,4,18,0.26
2014-8-21,78.7,65.1,48.9,51.4,45.9,41.6,77,52,33,29.91,29.77,14,3,14,0.00
2014-8-22,70.2,58.6,51.5,54.1,48.0,42.7,84,69,49,30.00,29.76,28,6,28,0.03
2014-8-23,68.8,58.0,48.9,53.1,48.6,45.6,94,73,49,30.08,29.96,13,4,13,0.00
2014-8-24,75.8,58.5,44.0,49.6,45.4,40.6,91,65,31,30.00,29.85,21,5,21,0.00
2014-8-25,76.7,60.9,45.5,50.5,45.0,40.3,90,59,32,29.98,29.89,20,4,20,0.00
2014-8-26,80.8,64.2,46.2,47.7,41.8,37.9,74,46,27,30.06,29.92,15,4,15,0.00
2014-8-27,86.1,69.0,53.2,48.7,43.5,37.6,59,42,25,30.01,29.85,20,5,20,0.00
2014-8-28,82.7,69.0,52.4,52.7,46.3,37.9,65,45,32,29.93,29.83,16,4,16,0.00
2014-8-29,84.6,67.3,49.9,47.3,41.7,36.3,65,42,23,29.91,29.70,22,6,22,0.00
2014-8-30,73.4,61.1,53.5,48.6,45.5,42.6,72,58,38,29.83,29.73,17,5,17,0.01
2014-8-31,69.8,56.8,44.6,44.9,41.2,34.8,80,58,35,29.98,29.80,21,6,21,0.00
2014-9-1,71.7,57.4,43.5,44.7,40.6,34.8,78,55,36,30.04,29.89,22,6,22,0.00
2014-9-2,77.2,64.3,46.4,48.1,42.3,35.4,73,47,30,29.90,29.59,26,8,26,0.00
2014-9-3,60.6,52.6,46.3,44.6,39.9,35.6,85,63,43,30.03,29.63,26,8,26,0.03
2014-9-4,71.5,54.6,38.1,41.3,37.3,31.9,83,55,30,30.13,30.03,15,4,15,0.00
2014-9-5,78.3,57.6,40.4,41.6,34.9,23.4,80,47,23,30.18,30.06,14,4,14,0.00
2014-9-6,84.2,63.2,45.5,42.3,32.9,24.0,49,34,18,30.09,29.86,16,5,16,0.00
2014-9-7,86.5,67.4,46.4,39.4,32.7,28.0,50,30,16,29.87,29.67,12,3,12,0.00
2014-9-8,81.4,66.5,51.3,36.1,31.2,25.0,40,28,18,29.74,29.64,20,5,20,0.00
2014-9-9,71.3,60.2,49.7,47.3,40.6,28.4,69,49,35,29.97,29.71,20,6,20,0.00
2014-9-10,65.3,54.2,41.4,41.2,31.5,15.4,66,44,26,30.21,29.96,23,7,23,0.00
2014-9-11,60.6,46.6,34.7,29.8,26.0,19.5,72,47,26,30.41,30.20,20,8,20,0.00
2014-9-12,74.5,52.8,34.4,32.9,25.7,19.5,61,37,18,30.25,29.97,17,6,17,0.00
2014-9-13,78.8,56.5,37.9,35.2,26.6,18.8,50,33,18,30.05,29.86,15,5,15,0.00
2014-9-14,79.3,59.4,39.4,37.3,28.1,21.7,50,32,19,30.01,29.85,17,4,17,0.00
2014-9-15,81.8,64.1,47.0,37.1,31.4,25.6,46,31,18,30.00,29.81,13,5,13,0.00
2014-9-16,88.8,71.1,55.0,45.9,37.5,31.6,42,30,21,29.83,29.69,17,4,17,0.00
2014-9-17,82.6,67.6,53.9,45.9,39.7,31.4,50,37,26,29.75,29.54,17,4,17,0.00
2014-9-18,78.8,66.8,57.3,48.5,43.1,38.8,68,44,28,29.80,29.50,17,5,17,0.00
2014-9-19,75.3,61.5,50.2,49.6,46.2,40.1,76,59,38,30.06,29.79,16,4,16,0.00
2014-9-20,81.4,62.5,48.4,48.1,41.6,33.3,79,50,22,30.14,29.93,14,5,14,0.00
2014-9-21,88.8,69.9,52.3,50.0,42.4,35.4,61,39,22,29.95,29.76,12,4,12,0.00
2014-9-22,79.8,67.1,57.4,53.4,46.0,35.9,68,47,35,29.88,29.75,18,5,18,0.00
2014-9-23,75.0,63.6,54.6,59.1,54.0,48.4,92,73,46,29.90,29.74,27,6,27,0.10
2014-9-24,75.8,64.4,53.9,54.4,48.4,42.6,76,57,42,29.86,29.68,22,8,22,0.00
2014-9-25,74.1,58.6,49.8,49.2,45.6,41.6,90,64,41,29.90,29.73,18,6,18,0.12
2014-9-26,67.3,55.0,45.5,51.2,45.9,39.8,94,73,46,30.02,29.82,18,4,18,0.11
2014-9-27,61.9,54.5,45.6,45.6,43.5,39.6,84,67,51,30.00,29.91,18,6,18,0.00
2014-9-28,68.2,56.1,48.4,46.9,43.2,40.4,77,63,46,29.93,29.82,24,12,24,0.00
2014-9-30,56.2,49.7,41.5,40.6,38.6,36.4,89,67,53,30.03,29.92,29,9,29,0.18
2014-10-1,60.7,46.4,33.4,42.5,36.5,30.1,96,70,44,30.16,30.00,24,4,24,0.00
2014-10-2,61.2,46.3,35.9,40.2,32.7,26.5,83,61,35,30.39,30.06,23,5,23,0.00
2014-10-3,65.8,47.6,35.1,36.8,31.4,26.1,78,55,31,30.48,30.24,16,5,16,0.00
2014-10-4,73.9,56.4,41.5,42.3,35.7,29.0,64,47,30,30.25,30.05,14,3,14,0.00
2014-10-5,75.0,59.9,46.5,47.1,41.0,34.6,71,51,34,30.13,29.97,20,3,20,0.00
2014-10-6,79.7,61.9,47.8,50.0,45.0,40.0,77,56,33,30.03,29.86,18,4,18,0.00
2014-10-7,82.8,64.6,52.4,49.5,44.9,39.9,71,51,30,29.92,29.77,12,4,12,0.00
2014-10-8,75.8,59.7,48.6,47.4,40.9,34.4,71,51,30,29.92,29.77,16,3,16,0.00
2014-10-9,71.1,56.1,40.3,47.0,39.8,33.3,81,56,33,30.04,29.89,12,3,12,0.00
2014-10-10,72.5,56.6,39.8,46.6,39.5,32.3,82,55,33,30.09,29.89,14,4,14,0.00
2014-10-11,59.9,53.3,45.2,51.4,41.5,31.2,93,66,36,30.02,29.85,39,11,39,0.50
2014-10-12,59.0,47.8,39.8,43.8,38.2,33.6,85,70,50,30.24,30.02,20,5,20,0.00
2014-10-13,68.8,54.5,41.3,40.5,35.8,30.3,84,53,30,30.14,29.69,23,7,23,0.00
2014-10-14,61.7,53.0,45.4,43.0,37.4,30.0,78,57,32,29.83,29.56,12,4,12,0.00
2014-10-15,54.1,47.3,38.5,42.7,38.9,32.5,91,73,51,30.10,29.50,30,10,30,0.16
2014-10-16,54.4,44.4,37.1,42.6,36.7,31.9,87,75,56,30.14,30.02,13,5,13,0.00
2014-10-17,65.3,49.0,36.9,46.3,38.1,32.9,87,68,37,30.02,29.85,16,7,16,0.00
2014-10-18,67.1,53.4,44.2,45.6,40.2,36.1,79,62,40,30.03,29.88,12,3,12,0.00
2014-10-19,73.5,56.1,40.4,44.2,38.5,31.9,86,56,25,29.97,29.71,23,8,23,0.00
2014-10-20,76.8,58.3,46.2,45.9,37.7,30.5,83,49,26,29.78,29.60,21,5,21,0.00
2014-10-21,52.8,46.1,39.2,46.1,41.3,33.8,95,84,67,30.03,29.74,17,4,17,0.21
2014-10-22,59.1,48.8,36.6,42.5,36.8,33.6,91,66,45,30.03,29.79,30,12,30,0.01
2014-10-23,59.0,50.7,44.3,46.7,42.5,38.8,95,75,54,29.99,29.75,34,10,34,0.21
2014-10-24,47.7,45.0,42.5,45.6,43.6,41.2,97,95,90,30.12,29.91,17,7,17,0.08
2014-10-25,67.1,52.8,41.5,48.6,40.6,35.0,97,68,33,29.91,29.52,47,19,47,0.01
2014-10-26,53.4,43.3,38.1,41.3,34.4,30.2,88,71,54,30.06,29.66,33,12,33,0.07
2014-10-27,50.3,39.8,32.8,36.7,31.8,28.4,86,73,50,30.20,30.07,16,5,16,0.01
2014-10-28,48.2,40.7,32.6,41.8,35.2,28.0,94,81,53,30.19,30.02,15,5,15,0.08
2014-10-29,59.1,47.6,39.7,46.7,41.4,36.8,94,80,58,30.21,30.03,20,5,20,0.18
2014-10-30,56.0,48.8,42.6,46.7,41.8,39.6,91,77,62,30.16,29.75,15,8,15,0.00
2014-10-31,61.7,49.5,42.1,50.7,43.5,37.1,95,81,54,29.80,29.65,14,4,14,0.00
2014-11-1,42.1,39.9,38.6,39.5,38.4,36.0,97,94,89,29.79,29.66,33,9,33,0.03
2014-11-2,46.5,39.1,34.4,36.5,32.1,29.2,89,76,61,30.19,29.78,36,11,36,0.23
2014-11-3,48.3,42.4,35.1,43.5,37.6,30.4,93,83,77,30.25,30.16,18,6,18,0.52
2014-11-4,50.8,46.5,42.9,44.5,41.1,37.1,89,81,74,30.28,30.10,23,9,23,0.09
2014-11-5,55.7,49.0,43.0,46.0,42.8,39.7,92,79,65,30.34,30.15,18,6,18,0.04
2014-11-6,62.8,52.3,45.1,48.4,43.9,37.9,88,74,51,30.15,29.92,29,7,29,0.05
2014-11-7,48.8,41.4,33.8,39.7,35.1,30.3,88,78,67,30.44,30.13,20,5,20,0.01
2014-11-8,50.6,41.5,32.1,41.8,35.5,28.9,92,79,68,30.39,30.04,12,4,12,0.00
2014-11-9,50.9,43.8,36.2,42.4,37.5,33.2,94,79,61,30.03,29.61,37,11,37,0.11
2014-11-10,36.8,30.4,24.0,33.2,26.6,19.5,94,86,78,30.28,29.81,25,9,25,0.19
2014-11-11,23.9,17.3,11.5,19.4,6.0,0.6,84,61,48,30.63,30.27,33,20,33,0.00
2014-11-12,23.1,15.1,7.8,7.5,3.2,-0.6,73,59,45,30.65,30.42,20,9,20,0.00
2014-11-13,25.4,19.1,10.3,20.2,11.9,4.5,91,74,59,30.42,30.10,16,7,16,0.00
2014-11-14,23.5,19.7,13.7,20.2,16.8,10.7,91,88,84,30.41,30.08,16,3,16,0.00
2014-11-15,33.2,16.0,5.7,17.6,9.4,1.8,91,76,45,30.75,30.41,7,2,7,0.00
2014-11-16,27.1,17.6,8.9,16.0,10.3,3.4,81,73,57,30.82,30.68,14,5,14,0.00
2014-11-17,31.7,22.4,12.1,19.8,13.9,6.5,79,70,55,30.68,30.48,10,3,10,0.01
2014-11-18,38.2,26.7,17.2,24.3,18.9,10.6,85,73,53,30.48,30.28,8,3,8,0.00
2014-11-19,41.6,30.0,24.3,25.8,22.3,18.5,83,73,52,30.30,30.03,9,2,12,0.01
2014-11-20,40.8,34.5,30.5,37.4,30.2,23.0,94,85,64,30.15,30.02,7,3,7,0.04
2014-11-21,46.5,38.1,30.2,37.3,33.1,27.4,93,82,65,30.03,29.43,31,9,31,0.05
2014-11-22,43.8,37.8,32.2,37.8,31.7,26.4,95,80,53,30.07,29.43,36,15,36,0.15
2014-11-23,39.8,35.7,29.7,32.5,29.6,25.6,92,78,66,30.26,30.07,40,16,40,0.19
2014-11-24,39.4,33.6,27.9,35.4,28.3,23.3,100,81,65,30.45,30.12,28,8,28,0.04
2014-11-25,44.2,40.3,36.9,42.9,38.7,35.5,96,94,84,30.19,30.08,26,8,26,1.06
2014-11-26,49.8,45.0,37.2,43.1,39.7,36.2,97,82,67,30.24,30.02,18,7,18,0.24
2014-11-27,58.7,50.1,44.5,41.7,38.8,34.9,79,66,48,30.02,29.74,25,10,25,0.01
2014-11-28,50.1,47.4,44.3,41.6,38.9,35.0,86,72,58,29.76,29.31,45,17,45,0.07
2014-11-29,45.4,26.5,10.1,38.9,24.1,7.2,94,91,75,30.23,29.31,28,8,28,0.08
2014-11-30,18.5,11.0,1.5,14.9,7.6,-2.2,92,86,79,30.47,30.23,10,4,10,0.00
2014-12-1,28.5,20.1,7.9,25.8,17.5,4.7,92,90,85,30.36,30.21,10,3,10,0.00
2014-12-2,28.0,23.5,16.6,26.4,21.9,14.4,95,93,91,30.34,30.17,10,2,10,0.00
2014-12-3,31.4,25.6,18.4,30.4,24.1,16.2,96,94,91,30.17,29.92,0,0,0,0.00
2014-12-4,38.2,32.6,29.0,37.4,31.7,28.0,97,96,96,30.10,29.90,7,1,7,0.03
2014-12-5,42.7,38.4,34.8,41.4,36.9,34.0,97,94,90,30.20,30.07,12,6,12,0.12
2014-12-6,47.0,39.5,32.9,41.2,36.0,31.6,96,87,75,30.33,30.01,20,7,20,0.11
2014-12-7,41.8,36.8,34.0,37.7,33.7,30.8,92,88,83,30.36,30.23,12,6,12,0.00
2014-12-8,50.4,40.7,34.4,43.4,36.1,32.0,92,84,71,30.25,30.11,14,5,14,0.00
2014-12-9,52.4,45.1,39.0,41.9,38.5,35.3,89,78,63,30.12,29.99,20,5,20,0.03
2014-12-10,55.7,50.0,43.2,39.7,37.5,34.3,79,63,46,29.99,29.54,44,15,44,0.00
2014-12-11,56.9,50.5,46.8,40.8,39.2,37.3,75,65,48,29.65,29.42,44,15,44,0.00
2014-12-12,50.8,39.6,32.6,39.8,36.5,31.3,95,89,61,29.92,29.54,21,6,21,0.43
2014-12-13,39.4,34.3,30.2,35.7,31.8,28.4,95,91,80,30.28,29.92,16,4,16,0.05
2014-12-14,33.4,30.1,27.6,30.2,28.2,25.7,96,93,86,30.33,30.22,13,4,13,0.01
2014-12-15,35.6,30.7,25.5,30.4,27.4,23.8,95,88,77,30.26,30.04,17,9,17,0.01
2014-12-16,35.1,31.9,27.2,31.7,29.2,25.0,95,90,85,30.05,29.96,12,5,12,0.00
2014-12-17,36.9,33.9,29.2,33.6,30.7,26.8,93,88,81,30.04,29.96,9,3,9,0.00
2014-12-18,41.1,36.3,33.8,36.9,33.2,30.9,94,88,78,30.08,29.99,14,4,14,0.04
2014-12-19,38.4,35.5,32.0,35.4,32.9,29.1,95,90,83,30.11,29.94,14,4,14,0.20
2014-12-20,40.2,35.4,31.5,37.2,32.9,29.4,95,90,83,30.07,29.63,23,8,23,0.20
2014-12-21,47.4,42.8,38.8,42.9,36.9,32.6,90,79,71,30.04,29.53,43,16,43,0.12
2014-12-22,40.2,36.0,30.2,33.9,30.5,25.2,91,80,70,30.43,30.01,28,9,28,0.01
2014-12-23,39.5,35.0,29.3,30.8,27.7,24.8,84,75,63,30.45,30.00,26,8,26,0.00
2014-12-24,40.1,33.8,29.3,33.6,30.4,28.0,96,88,71,30.00,29.63,23,8,23,0.08
2014-12-25,37.4,28.4,24.4,32.9,26.1,22.6,96,91,80,30.24,29.86,13,4,13,0.13
2014-12-26,30.3,24.5,14.6,26.6,21.6,11.5,93,89,83,30.45,30.20,15,5,15,0.00
2014-12-27,33.0,28.3,19.0,31.1,25.1,15.4,95,88,80,30.41,29.99,30,12,30,0.00
2014-12-28,31.1,28.1,22.7,29.7,26.8,21.2,95,95,93,30.23,30.02,22,7,22,0.00
2014-12-29,23.4,14.8,5.0,21.9,11.7,-0.5,94,87,78,30.79,30.21,24,14,24,0.00
2014-12-30,18.0,3.3,-5.2,12.8,-1.5,-9.3,87,80,63,31.05,30.78,14,4,14,0.00
2014-12-31,26.7,6.8,-2.7,17.3,2.0,-6.7,89,81,57,30.96,30.62,5,1,5,0.01
2015-1-1,25.5,7.5,-3.4,14.8,1.8,-8.3,92,77,56,30.69,30.44,7,2,7,0.00
2015-1-2,21.4,17.6,8.5,19.7,14.6,4.0,100,88,80,30.44,30.16,10,4,10,0.00